createdAt,value
2022-08-31T00:03:57.772Z,1020.70
2022-08-31T00:18:58.967Z,1020.73
2022-08-31T00:34:01.816Z,1020.67
2022-08-31T00:49:02.205Z,1020.66
2022-08-31T01:04:02.377Z,1020.62
2022-08-31T01:19:02.573Z,1020.81
2022-08-31T01:34:02.731Z,1020.86
2022-08-31T01:49:03.926Z,1020.95
2022-08-31T02:04:04.220Z,1020.93
2022-08-31T02:19:04.501Z,1020.87
2022-08-31T02:34:05.216Z,1020.80
2022-08-31T02:49:05.722Z,1020.66
2022-08-31T03:04:06.022Z,1020.61
2022-08-31T03:19:07.538Z,1020.59
2022-08-31T03:34:07.723Z,1020.54
2022-08-31T03:49:07.893Z,1020.62
2022-08-31T04:04:08.173Z,1020.86
2022-08-31T04:19:08.405Z,1020.97
2022-08-31T04:34:08.583Z,1021.12
2022-08-31T04:49:09.372Z,1021.17
2022-08-31T05:04:09.913Z,1021.28
2022-08-31T05:19:10.239Z,1021.18
2022-08-31T05:34:10.463Z,1021.26
2022-08-31T05:49:11.578Z,1021.31
2022-08-31T06:04:11.493Z,1021.29
2022-08-31T06:19:11.638Z,1021.35
2022-08-31T06:34:11.705Z,1021.36
2022-08-31T06:49:11.774Z,1021.35
2022-08-31T07:04:12.413Z,1021.47
2022-08-31T07:19:12.986Z,1021.78
2022-08-31T07:34:13.665Z,1021.81
2022-08-31T07:49:13.993Z,1021.96
2022-08-31T08:04:15.137Z,1022.00
2022-08-31T08:19:15.464Z,1022.01
2022-08-31T08:34:17.348Z,1022.09
2022-08-31T08:49:19.231Z,1022.03
2022-08-31T09:04:19.398Z,1022.02
2022-08-31T09:19:19.494Z,1021.88
2022-08-31T09:34:21.368Z,1021.92
2022-08-31T09:49:22.642Z,1021.99
2022-08-31T10:04:24.514Z,1021.89
2022-08-31T10:19:26.843Z,1021.80
2022-08-31T10:34:28.726Z,1021.77
2022-08-31T10:49:30.586Z,1021.70
2022-08-31T11:04:32.584Z,1021.62
2022-08-31T11:19:33.057Z,1021.45
2022-08-31T11:34:33.350Z,1021.36
2022-08-31T11:49:35.515Z,1021.33
2022-08-31T12:04:35.603Z,1021.18
2022-08-31T12:19:38.318Z,1021.03
2022-08-31T12:34:39.697Z,1020.95
2022-08-31T12:49:41.807Z,1020.90
2022-08-31T13:04:43.540Z,1020.90
2022-08-31T13:19:44.887Z,1020.69
2022-08-31T13:34:46.212Z,1020.67
2022-08-31T13:49:46.504Z,1020.55
2022-08-31T14:04:48.375Z,1020.52
2022-08-31T14:19:49.155Z,1020.46
2022-08-31T14:34:51.009Z,1020.40
2022-08-31T14:49:52.481Z,1020.27
2022-08-31T15:04:52.851Z,1020.35
2022-08-31T15:19:53.929Z,1020.26
2022-08-31T15:34:55.328Z,1020.27
2022-08-31T15:49:57.171Z,1020.20
2022-08-31T16:04:58.025Z,1020.17
2022-08-31T16:19:59.866Z,1020.03
2022-08-31T16:35:00.699Z,1019.98
2022-08-31T16:50:03.050Z,1019.94
2022-08-31T17:05:36.807Z,1020.10
2022-08-31T17:20:58.165Z,1020.14
2022-08-31T17:35:58.243Z,1020.21
2022-08-31T17:51:00.122Z,1020.23
2022-08-31T18:06:01.205Z,1020.36
2022-08-31T18:21:03.946Z,1020.38
2022-08-31T18:36:04.033Z,1020.54
2022-08-31T18:51:05.917Z,1020.71
2022-08-31T19:06:21.678Z,1020.61
2022-08-31T19:21:22.378Z,1020.67
2022-08-31T19:36:27.592Z,1020.76
2022-08-31T19:51:34.958Z,1020.88
2022-08-31T20:06:37.362Z,1020.85
2022-08-31T20:21:37.996Z,1020.87
2022-08-31T20:36:39.893Z,1020.94
2022-08-31T20:51:41.312Z,1020.87
2022-08-31T21:06:43.063Z,1020.95
2022-08-31T21:21:44.113Z,1020.98
2022-08-31T21:36:45.485Z,1021.08
2022-08-31T21:51:46.096Z,1021.11
2022-08-31T22:06:46.722Z,1021.20
2022-08-31T22:22:16.937Z,1021.29
2022-08-31T22:37:47.366Z,1021.42
2022-08-31T22:52:50.365Z,1021.53
2022-08-31T23:07:51.402Z,1021.53
2022-08-31T23:22:53.260Z,1021.41
2022-08-31T23:38:19.659Z,1021.22
2022-08-31T23:53:23.221Z,1021.23
